sensor_id;sensor_type;location;lat;lon;timestamp;P1;durP1;ratioP1;P2;durP2;ratioP2
37791;SDS011;29527;55.766;37.570;2022-12-01T00:02:12;65.03;;;27.25;;
37791;SDS011;29527;55.766;37.570;2022-12-01T00:04:38;60.80;;;26.65;;
37791;SDS011;29527;55.766;37.570;2022-12-01T00:07:03;60.35;;;27.70;;
37791;SDS011;29527;55.766;37.570;2022-12-01T00:09:28;57.58;;;26.55;;
37791;SDS011;29527;55.766;37.570;2022-12-01T00:12:12;61.28;;;26.67;;
37791;SDS011;29527;55.766;37.570;2022-12-01T00:14:38;58.05;;;25.80;;
37791;SDS011;29527;55.766;37.570;2022-12-01T00:17:03;68.15;;;27.48;;
37791;SDS011;29527;55.766;37.570;2022-12-01T00:19:29;60.60;;;26.92;;
37791;SDS011;29527;55.766;37.570;2022-12-01T00:21:55;58.17;;;25.67;;
37791;SDS011;29527;55.766;37.570;2022-12-01T00:24:21;62.30;;;26.90;;
37791;SDS011;29527;55.766;37.570;2022-12-01T00:26:48;58.63;;;26.80;;
37791;SDS011;29527;55.766;37.570;2022-12-01T00:29:14;61.58;;;26.83;;
37791;SDS011;29527;55.766;37.570;2022-12-01T00:31:39;69.72;;;27.88;;
37791;SDS011;29527;55.766;37.570;2022-12-01T00:34:05;62.58;;;28.33;;
37791;SDS011;29527;55.766;37.570;2022-12-01T00:36:31;65.95;;;27.63;;
37791;SDS011;29527;55.766;37.570;2022-12-01T00:38:56;60.33;;;26.83;;
37791;SDS011;29527;55.766;37.570;2022-12-01T00:41:22;62.33;;;27.50;;
37791;SDS011;29527;55.766;37.570;2022-12-01T00:43:50;61.80;;;27.10;;
37791;SDS011;29527;55.766;37.570;2022-12-01T00:46:16;57.47;;;26.00;;
37791;SDS011;29527;55.766;37.570;2022-12-01T00:48:42;61.13;;;26.52;;
37791;SDS011;29527;55.766;37.570;2022-12-01T00:51:08;65.63;;;27.23;;
37791;SDS011;29527;55.766;37.570;2022-12-01T00:53:33;64.50;;;27.40;;
37791;SDS011;29527;55.766;37.570;2022-12-01T00:55:58;65.95;;;28.30;;
37791;SDS011;29527;55.766;37.570;2022-12-01T00:58:24;63.15;;;27.55;;
37791;SDS011;29527;55.766;37.570;2022-12-01T01:00:56;65.32;;;27.63;;
37791;SDS011;29527;55.766;37.570;2022-12-01T01:03:23;68.45;;;26.73;;
37791;SDS011;29527;55.766;37.570;2022-12-01T01:05:49;61.13;;;26.42;;
37791;SDS011;29527;55.766;37.570;2022-12-01T01:08:14;63.03;;;27.58;;
37791;SDS011;29527;55.766;37.570;2022-12-01T01:10:41;63.70;;;26.20;;
37791;SDS011;29527;55.766;37.570;2022-12-01T01:13:08;62.33;;;27.45;;
37791;SDS011;29527;55.766;37.570;2022-12-01T01:15:34;59.28;;;26.38;;
37791;SDS011;29527;55.766;37.570;2022-12-01T01:18:00;64.05;;;25.73;;
37791;SDS011;29527;55.766;37.570;2022-12-01T01:20:25;60.80;;;26.88;;
37791;SDS011;29527;55.766;37.570;2022-12-01T01:22:51;70.82;;;27.70;;
37791;SDS011;29527;55.766;37.570;2022-12-01T01:25:16;61.08;;;26.05;;
37791;SDS011;29527;55.766;37.570;2022-12-01T01:27:42;66.72;;;25.85;;
37791;SDS011;29527;55.766;37.570;2022-12-01T01:30:07;62.13;;;27.50;;
37791;SDS011;29527;55.766;37.570;2022-12-01T01:32:33;60.95;;;26.10;;
37791;SDS011;29527;55.766;37.570;2022-12-01T01:34:58;61.45;;;27.25;;
37791;SDS011;29527;55.766;37.570;2022-12-01T01:37:24;55.90;;;25.65;;
37791;SDS011;29527;55.766;37.570;2022-12-01T01:39:49;63.63;;;25.38;;
37791;SDS011;29527;55.766;37.570;2022-12-01T01:42:17;58.10;;;25.35;;
37791;SDS011;29527;55.766;37.570;2022-12-01T01:44:51;58.38;;;25.33;;
37791;SDS011;29527;55.766;37.570;2022-12-01T01:50:08;55.70;;;23.95;;
37791;SDS011;29527;55.766;37.570;2022-12-01T01:52:37;57.25;;;24.30;;
37791;SDS011;29527;55.766;37.570;2022-12-01T01:55:07;59.90;;;23.95;;
37791;SDS011;29527;55.766;37.570;2022-12-01T01:57:33;65.38;;;26.77;;
37791;SDS011;29527;55.766;37.570;2022-12-01T02:00:06;59.63;;;24.95;;
37791;SDS011;29527;55.766;37.570;2022-12-01T02:02:36;56.55;;;24.67;;
37791;SDS011;29527;55.766;37.570;2022-12-01T02:05:05;56.70;;;24.63;;
37791;SDS011;29527;55.766;37.570;2022-12-01T02:07:38;66.05;;;25.10;;
37791;SDS011;29527;55.766;37.570;2022-12-01T02:10:08;55.75;;;24.83;;
37791;SDS011;29527;55.766;37.570;2022-12-01T02:12:42;58.22;;;24.33;;
37791;SDS011;29527;55.766;37.570;2022-12-01T02:34:57;56.33;;;23.60;;
37791;SDS011;29527;55.766;37.570;2022-12-01T02:37:46;60.58;;;23.67;;
37791;SDS011;29527;55.766;37.570;2022-12-01T02:40:23;57.38;;;22.73;;
37791;SDS011;29527;55.766;37.570;2022-12-01T02:45:45;61.13;;;25.08;;
37791;SDS011;29527;55.766;37.570;2022-12-01T02:48:19;60.85;;;25.40;;
37791;SDS011;29527;55.766;37.570;2022-12-01T02:50:51;57.42;;;25.85;;
37791;SDS011;29527;55.766;37.570;2022-12-01T02:53:18;63.10;;;26.17;;
37791;SDS011;29527;55.766;37.570;2022-12-01T02:55:45;61.30;;;25.55;;
37791;SDS011;29527;55.766;37.570;2022-12-01T02:58:16;58.55;;;24.55;;
37791;SDS011;29527;55.766;37.570;2022-12-01T03:00:44;63.20;;;25.60;;
37791;SDS011;29527;55.766;37.570;2022-12-01T03:06:48;54.25;;;24.17;;
37791;SDS011;29527;55.766;37.570;2022-12-01T03:12:33;55.58;;;23.83;;
37791;SDS011;29527;55.766;37.570;2022-12-01T03:15:29;56.00;;;21.60;;
37791;SDS011;29527;55.766;37.570;2022-12-01T03:18:21;54.42;;;24.25;;
37791;SDS011;29527;55.766;37.570;2022-12-01T03:20:49;56.92;;;24.15;;
37791;SDS011;29527;55.766;37.570;2022-12-01T03:25:50;52.70;;;22.35;;
37791;SDS011;29527;55.766;37.570;2022-12-01T03:28:19;63.08;;;23.77;;
37791;SDS011;29527;55.766;37.570;2022-12-01T03:30:53;57.03;;;24.70;;
37791;SDS011;29527;55.766;37.570;2022-12-01T03:33:23;55.42;;;24.50;;
37791;SDS011;29527;55.766;37.570;2022-12-01T03:35:59;56.63;;;24.00;;
37791;SDS011;29527;55.766;37.570;2022-12-01T03:38:29;63.60;;;24.48;;
37791;SDS011;29527;55.766;37.570;2022-12-01T03:40:58;55.88;;;23.10;;
37791;SDS011;29527;55.766;37.570;2022-12-01T03:43:31;57.67;;;24.15;;
37791;SDS011;29527;55.766;37.570;2022-12-01T03:46:01;58.45;;;23.63;;
37791;SDS011;29527;55.766;37.570;2022-12-01T03:48:28;55.80;;;23.02;;
37791;SDS011;29527;55.766;37.570;2022-12-01T03:53:46;56.55;;;24.63;;
37791;SDS011;29527;55.766;37.570;2022-12-01T03:56:23;52.80;;;23.58;;
37791;SDS011;29527;55.766;37.570;2022-12-01T03:58:55;56.67;;;23.25;;
37791;SDS011;29527;55.766;37.570;2022-12-01T04:01:24;56.00;;;24.17;;
37791;SDS011;29527;55.766;37.570;2022-12-01T04:03:51;58.92;;;24.45;;
37791;SDS011;29527;55.766;37.570;2022-12-01T04:06:17;62.40;;;25.38;;
37791;SDS011;29527;55.766;37.570;2022-12-01T04:08:43;58.75;;;23.40;;
37791;SDS011;29527;55.766;37.570;2022-12-01T04:11:08;57.13;;;23.55;;
37791;SDS011;29527;55.766;37.570;2022-12-01T04:13:52;57.75;;;24.95;;
37791;SDS011;29527;55.766;37.570;2022-12-01T04:16:17;62.05;;;23.55;;
37791;SDS011;29527;55.766;37.570;2022-12-01T04:18:43;60.22;;;24.85;;
37791;SDS011;29527;55.766;37.570;2022-12-01T04:21:08;58.08;;;23.95;;
37791;SDS011;29527;55.766;37.570;2022-12-01T04:23:33;59.65;;;24.50;;
37791;SDS011;29527;55.766;37.570;2022-12-01T04:26:17;57.72;;;23.98;;
37791;SDS011;29527;55.766;37.570;2022-12-01T04:28:43;59.80;;;23.50;;
37791;SDS011;29527;55.766;37.570;2022-12-01T04:31:08;57.35;;;24.55;;
37791;SDS011;29527;55.766;37.570;2022-12-01T04:33:34;59.05;;;25.95;;
37791;SDS011;29527;55.766;37.570;2022-12-01T04:35:59;57.28;;;25.13;;
37791;SDS011;29527;55.766;37.570;2022-12-01T04:38:25;59.72;;;24.55;;
37791;SDS011;29527;55.766;37.570;2022-12-01T04:40:51;67.25;;;25.83;;
37791;SDS011;29527;55.766;37.570;2022-12-01T04:43:17;57.05;;;25.83;;
37791;SDS011;29527;55.766;37.570;2022-12-01T04:45:42;58.40;;;25.00;;
37791;SDS011;29527;55.766;37.570;2022-12-01T04:48:08;58.90;;;24.85;;
37791;SDS011;29527;55.766;37.570;2022-12-01T04:50:33;60.50;;;26.73;;
37791;SDS011;29527;55.766;37.570;2022-12-01T04:52:59;57.80;;;23.65;;
37791;SDS011;29527;55.766;37.570;2022-12-01T04:55:24;64.57;;;25.52;;
37791;SDS011;29527;55.766;37.570;2022-12-01T04:57:50;59.05;;;25.33;;
37791;SDS011;29527;55.766;37.570;2022-12-01T05:00:16;61.08;;;25.40;;
37791;SDS011;29527;55.766;37.570;2022-12-01T05:02:42;59.50;;;25.25;;
37791;SDS011;29527;55.766;37.570;2022-12-01T05:05:12;58.78;;;26.20;;
37791;SDS011;29527;55.766;37.570;2022-12-01T05:07:38;63.75;;;25.58;;
37791;SDS011;29527;55.766;37.570;2022-12-01T05:10:04;59.22;;;25.15;;
37791;SDS011;29527;55.766;37.570;2022-12-01T05:12:30;60.90;;;24.48;;
37791;SDS011;29527;55.766;37.570;2022-12-01T05:14:55;64.28;;;26.48;;
37791;SDS011;29527;55.766;37.570;2022-12-01T05:17:21;62.78;;;26.17;;
37791;SDS011;29527;55.766;37.570;2022-12-01T05:19:46;60.15;;;25.17;;
37791;SDS011;29527;55.766;37.570;2022-12-01T05:22:30;64.90;;;26.15;;
37791;SDS011;29527;55.766;37.570;2022-12-01T05:24:56;60.55;;;26.27;;
37791;SDS011;29527;55.766;37.570;2022-12-01T05:27:21;63.90;;;25.88;;
37791;SDS011;29527;55.766;37.570;2022-12-01T05:29:47;66.53;;;26.65;;
37791;SDS011;29527;55.766;37.570;2022-12-01T05:32:12;61.83;;;24.08;;
37791;SDS011;29527;55.766;37.570;2022-12-01T05:34:38;61.47;;;24.80;;
37791;SDS011;29527;55.766;37.570;2022-12-01T05:37:03;59.33;;;24.75;;
37791;SDS011;29527;55.766;37.570;2022-12-01T05:39:29;59.17;;;24.02;;
37791;SDS011;29527;55.766;37.570;2022-12-01T05:41:55;57.10;;;24.95;;
37791;SDS011;29527;55.766;37.570;2022-12-01T05:44:20;64.57;;;25.52;;
37791;SDS011;29527;55.766;37.570;2022-12-01T05:46:46;61.20;;;23.75;;
37791;SDS011;29527;55.766;37.570;2022-12-01T05:49:11;58.40;;;25.55;;
37791;SDS011;29527;55.766;37.570;2022-12-01T05:51:36;61.88;;;25.88;;
37791;SDS011;29527;55.766;37.570;2022-12-01T05:54:02;62.17;;;24.92;;
37791;SDS011;29527;55.766;37.570;2022-12-01T05:56:27;62.95;;;24.50;;
37791;SDS011;29527;55.766;37.570;2022-12-01T05:58:53;56.75;;;23.60;;
37791;SDS011;29527;55.766;37.570;2022-12-01T06:01:18;56.55;;;23.67;;
37791;SDS011;29527;55.766;37.570;2022-12-01T06:03:44;54.75;;;23.60;;
37791;SDS011;29527;55.766;37.570;2022-12-01T06:06:09;56.03;;;22.98;;
37791;SDS011;29527;55.766;37.570;2022-12-01T06:08:34;52.97;;;23.27;;
37791;SDS011;29527;55.766;37.570;2022-12-01T06:11:00;53.03;;;22.17;;
37791;SDS011;29527;55.766;37.570;2022-12-01T06:13:25;49.85;;;24.85;;
37791;SDS011;29527;55.766;37.570;2022-12-01T06:15:54;56.53;;;22.02;;
37791;SDS011;29527;55.766;37.570;2022-12-01T06:18:24;48.92;;;23.27;;
37791;SDS011;29527;55.766;37.570;2022-12-01T06:20:50;52.20;;;22.98;;
37791;SDS011;29527;55.766;37.570;2022-12-01T06:23:16;54.25;;;23.60;;
37791;SDS011;29527;55.766;37.570;2022-12-01T06:25:42;53.15;;;23.80;;
37791;SDS011;29527;55.766;37.570;2022-12-01T06:28:07;54.15;;;24.45;;
37791;SDS011;29527;55.766;37.570;2022-12-01T06:30:33;50.88;;;23.27;;
37791;SDS011;29527;55.766;37.570;2022-12-01T06:32:58;52.80;;;23.52;;
37791;SDS011;29527;55.766;37.570;2022-12-01T06:35:24;60.22;;;24.88;;
37791;SDS011;29527;55.766;37.570;2022-12-01T06:37:51;58.03;;;25.00;;
37791;SDS011;29527;55.766;37.570;2022-12-01T06:40:18;55.60;;;24.15;;
37791;SDS011;29527;55.766;37.570;2022-12-01T06:42:43;61.05;;;24.63;;
37791;SDS011;29527;55.766;37.570;2022-12-01T06:45:09;54.70;;;24.02;;
37791;SDS011;29527;55.766;37.570;2022-12-01T06:47:35;55.55;;;23.83;;
37791;SDS011;29527;55.766;37.570;2022-12-01T06:50:00;52.67;;;25.33;;
37791;SDS011;29527;55.766;37.570;2022-12-01T06:52:28;57.45;;;24.88;;
37791;SDS011;29527;55.766;37.570;2022-12-01T06:54:53;61.00;;;26.08;;
37791;SDS011;29527;55.766;37.570;2022-12-01T06:57:19;60.55;;;25.30;;
37791;SDS011;29527;55.766;37.570;2022-12-01T06:59:44;59.05;;;25.95;;
37791;SDS011;29527;55.766;37.570;2022-12-01T07:02:12;56.55;;;23.73;;
37791;SDS011;29527;55.766;37.570;2022-12-01T07:04:38;59.13;;;24.58;;
37791;SDS011;29527;55.766;37.570;2022-12-01T07:07:04;54.67;;;23.75;;
37791;SDS011;29527;55.766;37.570;2022-12-01T07:09:30;52.58;;;23.92;;
37791;SDS011;29527;55.766;37.570;2022-12-01T07:11:55;56.55;;;24.48;;
37791;SDS011;29527;55.766;37.570;2022-12-01T07:14:22;60.22;;;24.63;;
37791;SDS011;29527;55.766;37.570;2022-12-01T07:16:48;51.17;;;25.05;;
37791;SDS011;29527;55.766;37.570;2022-12-01T07:19:14;51.78;;;24.02;;
37791;SDS011;29527;55.766;37.570;2022-12-01T07:21:40;50.90;;;24.67;;
37791;SDS011;29527;55.766;37.570;2022-12-01T07:24:06;52.28;;;24.55;;
37791;SDS011;29527;55.766;37.570;2022-12-01T07:26:31;55.75;;;25.42;;
37791;SDS011;29527;55.766;37.570;2022-12-01T07:28:57;57.05;;;25.52;;
37791;SDS011;29527;55.766;37.570;2022-12-01T07:31:22;52.60;;;25.25;;
37791;SDS011;29527;55.766;37.570;2022-12-01T07:33:48;53.38;;;25.27;;
37791;SDS011;29527;55.766;37.570;2022-12-01T07:36:13;60.50;;;25.80;;
37791;SDS011;29527;55.766;37.570;2022-12-01T07:38:39;57.45;;;25.95;;
37791;SDS011;29527;55.766;37.570;2022-12-01T07:41:12;53.78;;;26.30;;
37791;SDS011;29527;55.766;37.570;2022-12-01T07:43:40;52.58;;;25.02;;
37791;SDS011;29527;55.766;37.570;2022-12-01T07:46:10;52.20;;;25.00;;
37791;SDS011;29527;55.766;37.570;2022-12-01T07:48:40;56.72;;;23.90;;
37791;SDS011;29527;55.766;37.570;2022-12-01T07:51:06;58.83;;;26.17;;
37791;SDS011;29527;55.766;37.570;2022-12-01T07:53:34;61.50;;;26.48;;
37791;SDS011;29527;55.766;37.570;2022-12-01T07:56:00;59.80;;;25.88;;
37791;SDS011;29527;55.766;37.570;2022-12-01T07:58:26;56.88;;;26.00;;
37791;SDS011;29527;55.766;37.570;2022-12-01T08:00:52;58.80;;;25.30;;
37791;SDS011;29527;55.766;37.570;2022-12-01T08:03:18;58.75;;;27.27;;
37791;SDS011;29527;55.766;37.570;2022-12-01T08:05:44;59.42;;;26.60;;
37791;SDS011;29527;55.766;37.570;2022-12-01T08:08:09;66.95;;;28.13;;
37791;SDS011;29527;55.766;37.570;2022-12-01T08:10:35;67.13;;;27.75;;
37791;SDS011;29527;55.766;37.570;2022-12-01T08:13:01;65.50;;;28.33;;
37791;SDS011;29527;55.766;37.570;2022-12-01T08:15:27;67.40;;;27.75;;
37791;SDS011;29527;55.766;37.570;2022-12-01T08:17:52;71.80;;;30.17;;
37791;SDS011;29527;55.766;37.570;2022-12-01T08:20:18;66.65;;;28.73;;
37791;SDS011;29527;55.766;37.570;2022-12-01T08:22:45;68.68;;;29.65;;
37791;SDS011;29527;55.766;37.570;2022-12-01T08:25:11;69.00;;;29.55;;
37791;SDS011;29527;55.766;37.570;2022-12-01T08:27:36;57.97;;;28.70;;
37791;SDS011;29527;55.766;37.570;2022-12-01T08:30:01;63.20;;;28.73;;
37791;SDS011;29527;55.766;37.570;2022-12-01T08:32:29;68.57;;;29.30;;
37791;SDS011;29527;55.766;37.570;2022-12-01T08:34:54;69.70;;;30.20;;
37791;SDS011;29527;55.766;37.570;2022-12-01T08:37:20;67.30;;;29.83;;
37791;SDS011;29527;55.766;37.570;2022-12-01T08:39:45;74.72;;;31.65;;
37791;SDS011;29527;55.766;37.570;2022-12-01T08:42:11;69.13;;;30.77;;
37791;SDS011;29527;55.766;37.570;2022-12-01T08:44:37;68.40;;;31.27;;
37791;SDS011;29527;55.766;37.570;2022-12-01T08:47:02;68.07;;;29.40;;
37791;SDS011;29527;55.766;37.570;2022-12-01T08:49:28;76.30;;;30.20;;
37791;SDS011;29527;55.766;37.570;2022-12-01T08:51:53;71.82;;;31.98;;
37791;SDS011;29527;55.766;37.570;2022-12-01T08:54:20;68.45;;;30.67;;
37791;SDS011;29527;55.766;37.570;2022-12-01T08:56:46;66.30;;;31.13;;
37791;SDS011;29527;55.766;37.570;2022-12-01T08:59:11;75.03;;;31.00;;
37791;SDS011;29527;55.766;37.570;2022-12-01T09:01:37;72.13;;;31.75;;
37791;SDS011;29527;55.766;37.570;2022-12-01T09:04:24;72.88;;;30.85;;
37791;SDS011;29527;55.766;37.570;2022-12-01T09:06:51;65.03;;;30.75;;
37791;SDS011;29527;55.766;37.570;2022-12-01T09:09:19;78.07;;;32.35;;
37791;SDS011;29527;55.766;37.570;2022-12-01T09:11:46;68.22;;;32.35;;
37791;SDS011;29527;55.766;37.570;2022-12-01T09:14:13;86.20;;;34.13;;
37791;SDS011;29527;55.766;37.570;2022-12-01T09:16:40;71.35;;;33.75;;
37791;SDS011;29527;55.766;37.570;2022-12-01T09:19:06;75.65;;;33.33;;
37791;SDS011;29527;55.766;37.570;2022-12-01T09:21:32;78.60;;;33.30;;
37791;SDS011;29527;55.766;37.570;2022-12-01T09:24:01;78.93;;;33.70;;
37791;SDS011;29527;55.766;37.570;2022-12-01T09:26:29;79.13;;;34.28;;
37791;SDS011;29527;55.766;37.570;2022-12-01T09:28:58;76.53;;;33.40;;
37791;SDS011;29527;55.766;37.570;2022-12-01T09:31:26;79.53;;;33.65;;
37791;SDS011;29527;55.766;37.570;2022-12-01T09:34:11;78.95;;;33.83;;
37791;SDS011;29527;55.766;37.570;2022-12-01T09:36:39;79.25;;;33.67;;
37791;SDS011;29527;55.766;37.570;2022-12-01T09:39:05;77.95;;;32.97;;
37791;SDS011;29527;55.766;37.570;2022-12-01T09:41:35;78.10;;;33.67;;
37791;SDS011;29527;55.766;37.570;2022-12-01T09:47:12;83.75;;;34.08;;
37791;SDS011;29527;55.766;37.570;2022-12-01T09:49:44;76.75;;;33.60;;
37791;SDS011;29527;55.766;37.570;2022-12-01T09:52:14;82.57;;;34.13;;
37791;SDS011;29527;55.766;37.570;2022-12-01T09:54:42;81.75;;;34.75;;
37791;SDS011;29527;55.766;37.570;2022-12-01T09:57:54;92.95;;;36.78;;
37791;SDS011;29527;55.766;37.570;2022-12-01T10:00:00;91.43;;;35.38;;
37791;SDS011;29527;55.766;37.570;2022-12-01T10:02:41;77.65;;;33.38;;
37791;SDS011;29527;55.766;37.570;2022-12-01T10:05:15;80.03;;;34.40;;
37791;SDS011;29527;55.766;37.570;2022-12-01T10:07:47;80.93;;;35.63;;
37791;SDS011;29527;55.766;37.570;2022-12-01T10:10:15;80.22;;;35.63;;
37791;SDS011;29527;55.766;37.570;2022-12-01T10:12:47;79.97;;;35.05;;
37791;SDS011;29527;55.766;37.570;2022-12-01T10:18:11;86.88;;;36.08;;
37791;SDS011;29527;55.766;37.570;2022-12-01T10:23:11;76.90;;;33.58;;
37791;SDS011;29527;55.766;37.570;2022-12-01T10:25:55;86.10;;;36.28;;
37791;SDS011;29527;55.766;37.570;2022-12-01T10:28:37;73.35;;;33.92;;
37791;SDS011;29527;55.766;37.570;2022-12-01T10:31:28;82.63;;;33.80;;
37791;SDS011;29527;55.766;37.570;2022-12-01T10:34:42;58.35;;;25.55;;
37791;SDS011;29527;55.766;37.570;2022-12-01T10:36:53;78.40;;;34.25;;
37791;SDS011;29527;55.766;37.570;2022-12-01T10:45:03;77.43;;;33.53;;
37791;SDS011;29527;55.766;37.570;2022-12-01T10:47:34;81.53;;;34.45;;
37791;SDS011;29527;55.766;37.570;2022-12-01T10:49:59;70.38;;;32.72;;
37791;SDS011;29527;55.766;37.570;2022-12-01T10:52:36;74.88;;;34.20;;
37791;SDS011;29527;55.766;37.570;2022-12-01T10:55:05;76.32;;;34.83;;
37791;SDS011;29527;55.766;37.570;2022-12-01T10:57:48;86.32;;;34.72;;
37791;SDS011;29527;55.766;37.570;2022-12-01T11:00:27;73.90;;;33.38;;
37791;SDS011;29527;55.766;37.570;2022-12-01T11:03:01;75.70;;;34.65;;
37791;SDS011;29527;55.766;37.570;2022-12-01T11:05:28;73.20;;;32.63;;
37791;SDS011;29527;55.766;37.570;2022-12-01T11:08:04;66.50;;;32.85;;
37791;SDS011;29527;55.766;37.570;2022-12-01T11:10:31;71.10;;;33.60;;
37791;SDS011;29527;55.766;37.570;2022-12-01T11:12:58;75.43;;;33.42;;
37791;SDS011;29527;55.766;37.570;2022-12-01T11:16:11;68.63;;;33.67;;
37791;SDS011;29527;55.766;37.570;2022-12-01T11:20:46;75.03;;;32.90;;
37791;SDS011;29527;55.766;37.570;2022-12-01T11:31:23;71.40;;;33.60;;
37791;SDS011;29527;55.766;37.570;2022-12-01T11:34:02;68.05;;;33.17;;
37791;SDS011;29527;55.766;37.570;2022-12-01T11:36:31;77.90;;;34.50;;
37791;SDS011;29527;55.766;37.570;2022-12-01T11:39:02;78.25;;;35.78;;
37791;SDS011;29527;55.766;37.570;2022-12-01T11:41:29;73.55;;;32.08;;
37791;SDS011;29527;55.766;37.570;2022-12-01T11:44:05;74.60;;;33.75;;
37791;SDS011;29527;55.766;37.570;2022-12-01T11:46:40;73.72;;;31.70;;
37791;SDS011;29527;55.766;37.570;2022-12-01T11:49:14;67.80;;;32.55;;
37791;SDS011;29527;55.766;37.570;2022-12-01T11:51:44;70.65;;;32.67;;
37791;SDS011;29527;55.766;37.570;2022-12-01T11:56:39;67.22;;;32.92;;
37791;SDS011;29527;55.766;37.570;2022-12-01T11:59:11;82.18;;;32.92;;
37791;SDS011;29527;55.766;37.570;2022-12-01T12:04:31;71.10;;;33.92;;
37791;SDS011;29527;55.766;37.570;2022-12-01T12:07:12;74.03;;;31.83;;
37791;SDS011;29527;55.766;37.570;2022-12-01T12:15:03;74.10;;;33.80;;
37791;SDS011;29527;55.766;37.570;2022-12-01T12:17:37;75.25;;;34.20;;
37791;SDS011;29527;55.766;37.570;2022-12-01T12:31:10;82.88;;;36.92;;
37791;SDS011;29527;55.766;37.570;2022-12-01T12:52:28;82.63;;;35.22;;
37791;SDS011;29527;55.766;37.570;2022-12-01T12:55:01;82.68;;;35.42;;
37791;SDS011;29527;55.766;37.570;2022-12-01T12:57:46;81.07;;;35.83;;
37791;SDS011;29527;55.766;37.570;2022-12-01T13:00:17;81.32;;;35.70;;
37791;SDS011;29527;55.766;37.570;2022-12-01T13:02:51;87.63;;;35.53;;
37791;SDS011;29527;55.766;37.570;2022-12-01T13:13:32;81.45;;;33.55;;
37791;SDS011;29527;55.766;37.570;2022-12-01T13:16:04;84.50;;;34.97;;
37791;SDS011;29527;55.766;37.570;2022-12-01T13:18:38;83.03;;;36.28;;
37791;SDS011;29527;55.766;37.570;2022-12-01T13:21:08;91.30;;;36.85;;
37791;SDS011;29527;55.766;37.570;2022-12-01T13:23:39;96.90;;;38.22;;
37791;SDS011;29527;55.766;37.570;2022-12-01T13:26:05;97.70;;;39.08;;
37791;SDS011;29527;55.766;37.570;2022-12-01T13:28:39;93.10;;;38.85;;
37791;SDS011;29527;55.766;37.570;2022-12-01T13:31:12;84.35;;;37.65;;
37791;SDS011;29527;55.766;37.570;2022-12-01T13:33:44;87.25;;;36.47;;
37791;SDS011;29527;55.766;37.570;2022-12-01T13:36:19;89.82;;;34.50;;
37791;SDS011;29527;55.766;37.570;2022-12-01T13:41:43;87.72;;;33.30;;
37791;SDS011;29527;55.766;37.570;2022-12-01T13:44:20;82.78;;;34.28;;
37791;SDS011;29527;55.766;37.570;2022-12-01T13:46:58;73.50;;;32.90;;
37791;SDS011;29527;55.766;37.570;2022-12-01T13:49:38;81.47;;;33.42;;
37791;SDS011;29527;55.766;37.570;2022-12-01T14:00:18;90.35;;;34.38;;
37791;SDS011;29527;55.766;37.570;2022-12-01T14:08:13;83.90;;;34.90;;
37791;SDS011;29527;55.766;37.570;2022-12-01T14:10:56;83.60;;;35.17;;
37791;SDS011;29527;55.766;37.570;2022-12-01T14:13:23;78.65;;;34.05;;
37791;SDS011;29527;55.766;37.570;2022-12-01T14:15:52;84.55;;;33.67;;
37791;SDS011;29527;55.766;37.570;2022-12-01T14:18:24;73.00;;;31.95;;
37791;SDS011;29527;55.766;37.570;2022-12-01T14:20:54;77.93;;;31.75;;
37791;SDS011;29527;55.766;37.570;2022-12-01T14:23:22;68.15;;;31.42;;
37791;SDS011;29527;55.766;37.570;2022-12-01T14:31:21;78.90;;;33.33;;
37791;SDS011;29527;55.766;37.570;2022-12-01T14:34:20;81.32;;;34.15;;
37791;SDS011;29527;55.766;37.570;2022-12-01T14:36:55;83.10;;;34.92;;
37791;SDS011;29527;55.766;37.570;2022-12-01T14:39:27;83.57;;;36.45;;
37791;SDS011;29527;55.766;37.570;2022-12-01T14:41:57;84.30;;;36.42;;
37791;SDS011;29527;55.766;37.570;2022-12-01T14:54:53;93.85;;;42.05;;
37791;SDS011;29527;55.766;37.570;2022-12-01T14:57:21;96.75;;;41.22;;
37791;SDS011;29527;55.766;37.570;2022-12-01T15:00:05;94.57;;;41.35;;
37791;SDS011;29527;55.766;37.570;2022-12-01T15:02:45;104.60;;;43.28;;
37791;SDS011;29527;55.766;37.570;2022-12-01T15:05:24;101.47;;;42.38;;
37791;SDS011;29527;55.766;37.570;2022-12-01T15:07:52;100.88;;;45.25;;
37791;SDS011;29527;55.766;37.570;2022-12-01T15:10:24;100.63;;;44.13;;
37791;SDS011;29527;55.766;37.570;2022-12-01T15:13:10;100.53;;;43.13;;
37791;SDS011;29527;55.766;37.570;2022-12-01T15:15:49;109.28;;;44.85;;
37791;SDS011;29527;55.766;37.570;2022-12-01T15:18:19;111.30;;;45.28;;
37791;SDS011;29527;55.766;37.570;2022-12-01T15:20:46;106.75;;;45.88;;
37791;SDS011;29527;55.766;37.570;2022-12-01T15:23:15;110.47;;;47.05;;
37791;SDS011;29527;55.766;37.570;2022-12-01T15:25:42;112.57;;;49.22;;
37791;SDS011;29527;55.766;37.570;2022-12-01T15:28:11;108.68;;;45.90;;
37791;SDS011;29527;55.766;37.570;2022-12-01T15:30:42;110.70;;;46.40;;
37791;SDS011;29527;55.766;37.570;2022-12-01T15:33:18;101.00;;;44.65;;
37791;SDS011;29527;55.766;37.570;2022-12-01T15:35:45;107.43;;;45.08;;
37791;SDS011;29527;55.766;37.570;2022-12-01T15:38:14;99.85;;;43.03;;
37791;SDS011;29527;55.766;37.570;2022-12-01T15:40:45;115.53;;;46.78;;
37791;SDS011;29527;55.766;37.570;2022-12-01T15:45:53;102.38;;;45.45;;
37791;SDS011;29527;55.766;37.570;2022-12-01T15:48:30;107.13;;;45.25;;
37791;SDS011;29527;55.766;37.570;2022-12-01T15:51:05;108.53;;;45.67;;
37791;SDS011;29527;55.766;37.570;2022-12-01T15:53:50;108.72;;;45.33;;
37791;SDS011;29527;55.766;37.570;2022-12-01T15:56:23;100.25;;;43.85;;
37791;SDS011;29527;55.766;37.570;2022-12-01T15:58:51;100.13;;;43.13;;
37791;SDS011;29527;55.766;37.570;2022-12-01T16:01:23;99.03;;;42.40;;
37791;SDS011;29527;55.766;37.570;2022-12-01T16:03:55;86.93;;;38.83;;
37791;SDS011;29527;55.766;37.570;2022-12-01T16:06:26;89.10;;;38.70;;
37791;SDS011;29527;55.766;37.570;2022-12-01T16:08:55;89.68;;;38.45;;
37791;SDS011;29527;55.766;37.570;2022-12-01T16:11:23;88.93;;;38.60;;
37791;SDS011;29527;55.766;37.570;2022-12-01T16:14:18;92.82;;;38.47;;
37791;SDS011;29527;55.766;37.570;2022-12-01T16:16:46;85.53;;;37.53;;
37791;SDS011;29527;55.766;37.570;2022-12-01T16:24:35;89.60;;;38.05;;
37791;SDS011;29527;55.766;37.570;2022-12-01T16:27:20;86.88;;;39.85;;
37791;SDS011;29527;55.766;37.570;2022-12-01T16:29:49;94.22;;;38.67;;
37791;SDS011;29527;55.766;37.570;2022-12-01T16:32:21;92.18;;;40.63;;
37791;SDS011;29527;55.766;37.570;2022-12-01T16:34:52;90.80;;;37.75;;
37791;SDS011;29527;55.766;37.570;2022-12-01T16:37:18;88.68;;;39.25;;
37791;SDS011;29527;55.766;37.570;2022-12-01T16:39:44;93.95;;;38.75;;
37791;SDS011;29527;55.766;37.570;2022-12-01T16:42:10;86.80;;;37.47;;
37791;SDS011;29527;55.766;37.570;2022-12-01T16:44:37;88.82;;;37.92;;
37791;SDS011;29527;55.766;37.570;2022-12-01T16:47:08;90.05;;;38.10;;
37791;SDS011;29527;55.766;37.570;2022-12-01T16:49:37;86.13;;;36.92;;
37791;SDS011;29527;55.766;37.570;2022-12-01T16:52:02;83.20;;;37.22;;
37791;SDS011;29527;55.766;37.570;2022-12-01T16:54:28;93.43;;;39.58;;